Time;durP1;ratioP1;P1;durP2;ratioP2;P2;SDS_P1;SDS_P2;PMS_P1;PMS_P2;Temp;Humidity;BMP_temperature;BMP_pressure;BME280_temperature;BME280_humidity;BME280_pressure;Samples;Min_cycle;Max_cycle;Signal;HPM_P1;HPM_P2
2021/12/29 00:00:58;;;;;;;3.50;1.80;;;9.80;97.10;;;;;;5045880;28;20102;-65
2021/12/29 00:03:26;;;;;;;4.82;2.10;;;9.70;97.10;;;;;;5041653;28;20374;-65
2021/12/29 00:05:53;;;;;;;8.38;1.90;;;9.70;97.20;;;;;;5041240;28;20145;-67
2021/12/29 00:08:20;;;;;;;4.70;2.08;;;9.70;97.10;;;;;;5042111;28;20102;-66
2021/12/29 00:10:53;;;;;;;7.75;2.17;;;9.70;97.10;;;;;;5043072;28;20098;-66
2021/12/29 00:13:22;;;;;;;6.60;2.05;;;9.60;97.10;;;;;;5042106;28;20072;-67
2021/12/29 00:15:56;;;;;;;7.97;2.10;;;9.60;97.20;;;;;;5043832;28;20084;-66
2021/12/29 00:18:25;;;;;;;6.38;1.98;;;9.60;97.20;;;;;;5041946;28;20055;-66
2021/12/29 00:20:53;;;;;;;4.63;1.50;;;9.60;97.30;;;;;;5040414;28;20094;-67
2021/12/29 00:23:20;;;;;;;6.85;1.70;;;9.50;97.30;;;;;;5042745;28;20751;-67
2021/12/29 00:25:49;;;;;;;4.45;1.80;;;9.50;97.30;;;;;;5042073;28;20763;-67
2021/12/29 00:28:18;;;;;;;4.35;1.73;;;9.50;97.40;;;;;;5041536;28;20136;-66
2021/12/29 00:30:46;;;;;;;5.47;2.38;;;9.50;97.50;;;;;;5042219;28;20080;-67
2021/12/29 00:33:13;;;;;;;6.82;1.77;;;9.40;97.50;;;;;;5043020;28;20774;-68
2021/12/29 00:35:41;;;;;;;5.80;1.80;;;9.40;97.40;;;;;;5041951;28;20335;-67
2021/12/29 00:38:10;;;;;;;9.25;1.77;;;9.40;97.40;;;;;;5040908;28;20095;-67
2021/12/29 00:40:37;;;;;;;5.93;1.90;;;9.30;97.50;;;;;;5044217;28;20072;-67
2021/12/29 00:43:05;;;;;;;2.55;1.55;;;9.30;97.60;;;;;;5042292;28;20124;-67
2021/12/29 00:45:35;;;;;;;3.25;1.38;;;9.30;97.60;;;;;;5045048;28;20077;-66
2021/12/29 00:48:04;;;;;;;6.90;1.65;;;9.30;97.70;;;;;;5044832;28;20103;-65
2021/12/29 00:50:33;;;;;;;3.55;2.65;;;9.30;97.90;;;;;;5047123;28;20187;-66
2021/12/29 00:53:00;;;;;;;8.57;2.10;;;9.30;97.60;;;;;;5046373;28;20114;-65
2021/12/29 00:55:27;;;;;;;8.52;2.20;;;9.30;97.70;;;;;;5043434;28;20073;-66
2021/12/29 00:57:54;;;;;;;3.50;1.60;;;9.30;97.70;;;;;;5043444;28;20310;-66
2021/12/29 01:00:22;;;;;;;5.93;1.90;;;9.30;97.70;;;;;;5044765;28;20137;-66
2021/12/29 01:02:49;;;;;;;5.88;2.00;;;9.40;97.60;;;;;;5043543;28;20083;-66
2021/12/29 01:05:16;;;;;;;10.60;2.08;;;9.40;97.60;;;;;;5043583;28;20627;-66
2021/12/29 01:07:44;;;;;;;4.88;1.67;;;9.30;97.60;;;;;;5043738;28;20512;-66
2021/12/29 01:10:12;;;;;;;7.05;2.30;;;9.30;97.70;;;;;;5046643;28;20053;-66
2021/12/29 01:12:46;;;;;;;4.63;1.30;;;9.40;97.60;;;;;;5046934;28;20853;-65
2021/12/29 01:15:16;;;;;;;4.68;1.88;;;9.30;97.70;;;;;;5046862;28;20084;-66
2021/12/29 01:17:43;;;;;;;6.70;1.80;;;9.30;97.70;;;;;;5046664;28;20049;-65
2021/12/29 01:20:10;;;;;;;4.30;1.98;;;9.30;97.80;;;;;;5046466;28;20061;-65
2021/12/29 01:22:37;;;;;;;5.30;1.70;;;9.20;97.70;;;;;;5046920;28;20041;-66
2021/12/29 01:25:04;;;;;;;3.75;1.45;;;9.20;97.80;;;;;;5047033;28;20049;-65
2021/12/29 01:27:31;;;;;;;7.85;1.73;;;9.20;97.70;;;;;;5045828;28;20045;-66
2021/12/29 01:29:58;;;;;;;6.32;1.73;;;9.20;97.80;;;;;;5047386;28;20126;-67
2021/12/29 01:32:25;;;;;;;7.32;2.17;;;9.10;97.80;;;;;;5046046;28;20468;-66
2021/12/29 01:34:51;;;;;;;5.47;1.98;;;9.00;97.90;;;;;;5048151;28;20390;-68
2021/12/29 01:37:18;;;;;;;5.65;2.42;;;9.00;98.00;;;;;;5044634;28;20037;-67
2021/12/29 01:39:45;;;;;;;6.55;2.10;;;9.00;98.10;;;;;;5047694;28;20103;-67
2021/12/29 01:42:12;;;;;;;3.20;1.58;;;9.00;98.10;;;;;;5047476;28;20041;-67
2021/12/29 01:44:39;;;;;;;5.22;1.77;;;9.00;98.30;;;;;;5046791;28;20083;-69
2021/12/29 01:47:06;;;;;;;5.93;1.77;;;8.90;98.10;;;;;;5046509;28;20049;-66
2021/12/29 01:49:33;;;;;;;3.47;1.50;;;8.90;98.20;;;;;;5046366;28;20049;-65
2021/12/29 01:52:12;;;;;;;4.85;1.92;;;8.90;98.10;;;;;;5046944;28;20049;-66
2021/12/29 01:54:39;;;;;;;8.65;2.35;;;8.90;98.20;;;;;;5045213;28;20057;-66
2021/12/29 01:57:09;;;;;;;9.15;1.98;;;8.90;98.30;;;;;;5046585;28;20076;-65
2021/12/29 01:59:36;;;;;;;4.57;1.60;;;8.90;98.30;;;;;;5046464;28;20041;-66
2021/12/29 02:02:03;;;;;;;9.15;1.40;;;8.90;98.30;;;;;;5045412;28;20084;-66
2021/12/29 02:04:30;;;;;;;5.97;2.17;;;8.90;98.30;;;;;;5046087;28;20063;-66
2021/12/29 02:07:02;;;;;;;8.25;1.95;;;8.90;98.40;;;;;;5045782;28;20404;-66
2021/12/29 02:09:29;;;;;;;7.18;1.60;;;9.00;98.40;;;;;;5046534;28;20510;-67
2021/12/29 02:11:55;;;;;;;8.27;1.95;;;9.00;98.40;;;;;;5046099;28;20141;-66
2021/12/29 02:14:23;;;;;;;6.95;1.75;;;9.00;98.40;;;;;;5045081;28;20084;-65
2021/12/29 02:16:50;;;;;;;6.93;1.85;;;9.00;98.50;;;;;;5045806;28;20166;-66
2021/12/29 02:19:17;;;;;;;3.25;1.42;;;9.00;98.50;;;;;;5045497;28;20555;-66
2021/12/29 02:21:53;;;;;;;4.05;1.80;;;9.00;98.50;;;;;;5046591;28;20049;-66
2021/12/29 02:24:23;;;;;;;4.22;1.10;;;8.90;98.50;;;;;;5045943;28;20040;-66
2021/12/29 02:26:50;;;;;;;2.55;1.50;;;9.00;98.50;;;;;;5039888;28;20568;-66
2021/12/29 02:29:17;;;;;;;2.88;1.77;;;9.00;98.50;;;;;;5026818;28;20060;-66
2021/12/29 02:31:45;;;;;;;5.40;1.75;;;9.00;98.40;;;;;;5045909;28;20049;-66
2021/12/29 02:34:13;;;;;;;7.85;1.77;;;9.00;98.30;;;;;;5048558;28;20056;-66
2021/12/29 02:36:43;;;;;;;8.60;1.95;;;9.00;98.70;;;;;;5042456;28;20068;-66
2021/12/29 02:39:20;;;;;;;7.45;1.70;;;8.90;98.40;;;;;;5048274;28;20144;-65
2021/12/29 02:41:51;;;;;;;6.75;1.73;;;8.90;98.50;;;;;;4698736;28;10001621;-65
2021/12/29 02:44:24;;;;;;;7.28;1.60;;;8.90;98.50;;;;;;5049842;28;20072;-66
2021/12/29 02:46:52;;;;;;;4.32;1.25;;;8.90;98.50;;;;;;5048868;28;20099;-65
2021/12/29 02:49:19;;;;;;;7.75;1.70;;;8.90;98.60;;;;;;5048844;28;20448;-65
2021/12/29 02:51:47;;;;;;;5.72;2.83;;;8.90;98.60;;;;;;5031704;28;20076;-65
2021/12/29 02:54:16;;;;;;;8.00;2.63;;;8.80;98.60;;;;;;5049576;28;20258;-65
2021/12/29 02:56:45;;;;;;;8.07;2.40;;;8.80;98.60;;;;;;5049473;28;20049;-65
2021/12/29 02:59:11;;;;;;;6.22;1.75;;;8.80;98.90;;;;;;5049195;28;20067;-66
2021/12/29 03:01:38;;;;;;;5.13;1.85;;;8.80;98.70;;;;;;5048647;28;20447;-66
2021/12/29 03:04:06;;;;;;;7.85;2.00;;;8.80;98.70;;;;;;5041444;28;20079;-66
2021/12/29 03:06:33;;;;;;;7.15;2.10;;;8.70;98.70;;;;;;5049283;28;20064;-66
2021/12/29 03:09:01;;;;;;;7.07;1.63;;;8.70;98.70;;;;;;5049496;28;20084;-65
2021/12/29 03:11:27;;;;;;;4.95;2.17;;;8.70;98.70;;;;;;5048682;28;20073;-65
2021/12/29 03:13:54;;;;;;;5.20;1.90;;;8.70;98.80;;;;;;5049973;28;20094;-66
2021/12/29 03:16:21;;;;;;;4.05;1.90;;;8.70;98.90;;;;;;5051652;28;20049;-67
2021/12/29 03:18:48;;;;;;;6.75;1.35;;;8.70;99.00;;;;;;5050292;28;20455;-66
2021/12/29 03:21:15;;;;;;;6.25;2.10;;;8.70;99.00;;;;;;5049321;28;20076;-65
2021/12/29 03:23:41;;;;;;;6.82;1.50;;;8.70;99.00;;;;;;5049885;28;20128;-65
2021/12/29 03:26:08;;;;;;;5.05;1.77;;;8.70;99.00;;;;;;5048224;28;20346;-66
2021/12/29 03:28:35;;;;;;;4.68;1.30;;;8.70;99.00;;;;;;5049804;28;20488;-67
2021/12/29 03:31:02;;;;;;;4.63;1.45;;;8.70;99.00;;;;;;5048218;28;20084;-65
2021/12/29 03:33:29;;;;;;;4.18;1.48;;;8.70;99.20;;;;;;5049635;28;20125;-65
2021/12/29 03:36:05;;;;;;;2.80;1.45;;;8.70;99.00;;;;;;5049261;28;20057;-65
2021/12/29 03:38:34;;;;;;;4.50;1.83;;;8.70;99.00;;;;;;5048987;28;20056;-66
2021/12/29 03:41:01;;;;;;;6.28;1.95;;;8.70;99.00;;;;;;5049422;28;20482;-65
2021/12/29 03:43:28;;;;;;;5.28;1.45;;;8.80;99.20;;;;;;5047384;28;20445;-66
2021/12/29 03:45:55;;;;;;;2.80;1.48;;;8.80;99.10;;;;;;5048906;28;20045;-66
2021/12/29 03:48:23;;;;;;;9.05;1.83;;;8.80;99.00;;;;;;5049043;28;20045;-66
2021/12/29 03:50:50;;;;;;;5.22;1.48;;;8.90;99.10;;;;;;5040691;28;20045;-66
2021/12/29 03:53:17;;;;;;;4.05;1.65;;;8.90;99.10;;;;;;5043300;28;20083;-65
2021/12/29 03:55:44;;;;;;;3.20;1.20;;;8.90;99.10;;;;;;5048647;28;20422;-65
2021/12/29 03:58:11;;;;;;;4.90;1.20;;;9.00;99.00;;;;;;5049099;28;20123;-66
2021/12/29 04:00:38;;;;;;;4.50;1.33;;;9.00;99.00;;;;;;5048260;28;20073;-66
2021/12/29 04:03:05;;;;;;;5.70;1.55;;;9.00;99.00;;;;;;5036596;28;20037;-66
2021/12/29 04:05:32;;;;;;;3.72;1.10;;;9.00;99.00;;;;;;5045242;28;20060;-65
2021/12/29 04:07:59;;;;;;;4.88;1.27;;;9.10;99.00;;;;;;5048517;28;20044;-66
2021/12/29 04:10:26;;;;;;;13.00;2.17;;;9.10;99.00;;;;;;5048688;28;20041;-65
2021/12/29 04:12:53;;;;;;;6.25;1.80;;;9.10;99.00;;;;;;5046259;28;20045;-66
2021/12/29 04:15:20;;;;;;;2.20;1.10;;;9.10;99.00;;;;;;5047601;28;20099;-66
2021/12/29 04:17:48;;;;;;;6.95;1.70;;;9.10;99.10;;;;;;5048143;28;20130;-66
2021/12/29 04:23:04;;;;;;;4.38;1.15;;;9.20;99.20;;;;;;5048176;28;20080;-65
2021/12/29 04:25:35;;;;;;;3.40;1.00;;;9.20;99.10;;;;;;5048567;28;20126;-66
2021/12/29 04:28:02;;;;;;;7.13;1.08;;;9.30;99.10;;;;;;5046535;28;20557;-66
2021/12/29 04:30:28;;;;;;;3.38;1.30;;;9.30;99.10;;;;;;5047096;28;20142;-66
2021/12/29 04:32:55;;;;;;;12.50;1.52;;;9.30;99.10;;;;;;5048062;28;20045;-65
2021/12/29 04:35:22;;;;;;;3.78;1.30;;;9.30;99.10;;;;;;5048169;28;20512;-66
2021/12/29 04:37:49;;;;;;;3.08;1.25;;;9.30;99.00;;;;;;5048024;28;20071;-65
2021/12/29 04:40:16;;;;;;;8.93;1.42;;;9.30;99.10;;;;;;5048012;28;20095;-65
2021/12/29 04:42:43;;;;;;;5.65;1.00;;;9.40;99.10;;;;;;5047893;28;20133;-66
2021/12/29 04:45:10;;;;;;;6.55;1.05;;;9.40;99.10;;;;;;5047975;28;20091;-65
2021/12/29 04:47:41;;;;;;;9.70;1.60;;;9.40;99.10;;;;;;5047788;28;20386;-66
2021/12/29 04:52:56;;;;;;;7.53;1.87;;;9.40;99.10;;;;;;5047880;28;20496;-66
2021/12/29 04:55:24;;;;;;;6.53;1.63;;;9.40;99.10;;;;;;5047702;28;20118;-66
2021/12/29 04:57:51;;;;;;;15.98;2.40;;;9.40;99.10;;;;;;5049284;28;20057;-66
2021/12/29 05:00:20;;;;;;;12.85;2.17;;;9.40;99.10;;;;;;5048033;28;20072;-66
2021/12/29 05:02:48;;;;;;;11.32;1.90;;;9.40;99.10;;;;;;5046563;28;20119;-65
2021/12/29 05:05:21;;;;;;;7.10;2.13;;;9.50;99.20;;;;;;5047432;28;20052;-65
2021/12/29 05:10:34;;;;;;;20.00;2.83;;;9.40;99.20;;;;;;5040243;28;20328;-66
2021/12/29 05:13:01;;;;;;;17.73;2.92;;;9.50;99.30;;;;;;5029751;28;20040;-65
2021/12/29 05:15:27;;;;;;;17.15;3.60;;;9.50;99.30;;;;;;5047308;28;20106;-66
2021/12/29 05:17:56;;;;;;;15.95;2.63;;;9.50;99.40;;;;;;5047358;28;20087;-66
2021/12/29 05:20:23;;;;;;;20.00;3.75;;;9.40;99.40;;;;;;5047222;28;20076;-66
2021/12/29 05:22:50;;;;;;;18.42;3.17;;;9.40;99.60;;;;;;5047526;28;20095;-66
2021/12/29 05:25:16;;;;;;;19.90;4.20;;;9.40;99.60;;;;;;5047337;28;20084;-66
2021/12/29 05:27:43;;;;;;;21.98;4.53;;;9.40;99.60;;;;;;5047602;28;20072;-66
2021/12/29 05:30:10;;;;;;;28.35;4.88;;;9.40;99.70;;;;;;5047210;28;20140;-65
2021/12/29 05:32:37;;;;;;;23.23;3.42;;;9.40;99.70;;;;;;5047369;28;20071;-65
2021/12/29 05:35:05;;;;;;;19.83;3.50;;;9.40;99.70;;;;;;5046932;28;20073;-65
2021/12/29 05:37:31;;;;;;;22.35;4.38;;;9.50;99.70;;;;;;5047050;28;20523;-65
2021/12/29 05:39:58;;;;;;;15.55;2.95;;;9.50;99.70;;;;;;5047252;28;20083;-65
2021/12/29 05:42:25;;;;;;;21.63;3.28;;;9.50;99.80;;;;;;5047070;28;20073;-65
2021/12/29 05:44:52;;;;;;;15.82;3.17;;;9.50;99.80;;;;;;5047168;28;20076;-65
2021/12/29 05:47:18;;;;;;;20.45;2.90;;;9.50;99.80;;;;;;5047464;28;20087;-65
2021/12/29 05:49:45;;;;;;;20.23;4.65;;;9.50;99.90;;;;;;5046340;28;20056;-65
2021/12/29 05:52:15;;;;;;;16.73;2.92;;;9.50;99.90;;;;;;5047563;28;20080;-65
2021/12/29 05:54:42;;;;;;;24.48;3.67;;;9.50;99.90;;;;;;5046726;28;20496;-65
2021/12/29 05:57:09;;;;;;;18.00;2.85;;;9.50;99.90;;;;;;5047360;28;20383;-65
2021/12/29 05:59:36;;;;;;;16.23;3.08;;;9.50;99.90;;;;;;5046979;28;20042;-65
2021/12/29 06:02:03;;;;;;;13.15;2.42;;;9.50;99.90;;;;;;5046674;28;20331;-65
2021/12/29 06:04:30;;;;;;;13.00;3.10;;;9.60;99.90;;;;;;5046955;28;20079;-65
2021/12/29 06:06:57;;;;;;;17.95;2.95;;;9.60;99.90;;;;;;5046493;28;20501;-65
2021/12/29 06:09:24;;;;;;;13.98;2.70;;;9.50;99.90;;;;;;5050218;28;20068;-65
2021/12/29 06:11:51;;;;;;;16.20;3.80;;;9.50;99.90;;;;;;5049779;28;20045;-65
2021/12/29 06:14:17;;;;;;;15.52;2.72;;;9.50;99.90;;;;;;5050756;28;20087;-65
2021/12/29 06:16:44;;;;;;;14.07;3.33;;;9.50;99.90;;;;;;5050204;28;20072;-65
2021/12/29 06:19:11;;;;;;;9.32;3.00;;;9.50;99.90;;;;;;5049368;28;20080;-66
2021/12/29 06:21:38;;;;;;;12.90;2.72;;;9.40;99.90;;;;;;5050388;28;20048;-65
2021/12/29 06:24:06;;;;;;;12.82;2.60;;;9.40;99.90;;;;;;5050829;28;20126;-65
2021/12/29 06:26:34;;;;;;;14.40;3.72;;;9.40;99.90;;;;;;5050283;28;20053;-65
2021/12/29 06:29:01;;;;;;;14.85;3.05;;;9.40;99.90;;;;;;5050583;28;20319;-65
2021/12/29 06:31:27;;;;;;;8.20;1.48;;;9.40;99.90;;;;;;5050116;28;20314;-66
2021/12/29 06:33:54;;;;;;;6.47;1.65;;;9.40;99.90;;;;;;5045010;28;20049;-65
2021/12/29 06:36:21;;;;;;;10.98;2.63;;;9.40;99.90;;;;;;5050514;28;20044;-65
2021/12/29 06:38:48;;;;;;;12.27;3.28;;;9.40;99.90;;;;;;5050432;28;20072;-65
2021/12/29 06:41:15;;;;;;;6.80;1.50;;;9.40;99.90;;;;;;5050003;28;20500;-65
2021/12/29 06:43:42;;;;;;;5.82;1.42;;;9.40;99.90;;;;;;5050078;28;20045;-65
2021/12/29 06:46:08;;;;;;;4.05;0.80;;;9.40;99.90;;;;;;5050105;28;20073;-65
2021/12/29 06:48:35;;;;;;;6.63;1.20;;;9.40;99.90;;;;;;5048863;28;20056;-66
2021/12/29 06:51:02;;;;;;;3.90;1.30;;;9.40;99.90;;;;;;5048243;28;20045;-64
2021/12/29 06:53:31;;;;;;;3.75;1.00;;;9.40;99.90;;;;;;5050103;28;20110;-64
2021/12/29 06:55:59;;;;;;;2.67;1.20;;;9.40;99.90;;;;;;5049886;28;20053;-64
2021/12/29 06:58:26;;;;;;;7.10;1.17;;;9.40;99.90;;;;;;5049569;28;20064;-64
2021/12/29 07:00:52;;;;;;;3.17;0.88;;;9.40;99.90;;;;;;5050240;28;20099;-64
2021/12/29 07:03:20;;;;;;;8.98;1.25;;;9.40;99.90;;;;;;5049393;28;20052;-64
2021/12/29 07:05:46;;;;;;;6.55;1.45;;;9.40;99.90;;;;;;5049772;28;20073;-65
2021/12/29 07:08:14;;;;;;;6.22;1.33;;;9.40;99.90;;;;;;5049514;28;20048;-65
2021/12/29 07:10:42;;;;;;;5.40;1.38;;;9.40;99.90;;;;;;5049540;28;20045;-65
2021/12/29 07:13:09;;;;;;;3.50;1.00;;;9.40;99.90;;;;;;5048345;28;20084;-65
2021/12/29 07:15:36;;;;;;;5.70;0.90;;;9.40;99.90;;;;;;5049444;28;20076;-65
2021/12/29 07:18:03;;;;;;;6.35;1.33;;;9.40;99.90;;;;;;5049208;28;20124;-65
2021/12/29 07:20:30;;;;;;;8.25;1.55;;;9.40;99.90;;;;;;5049329;28;20106;-65
2021/12/29 07:22:57;;;;;;;9.57;1.23;;;9.50;99.90;;;;;;5049610;28;20052;-65
2021/12/29 07:25:24;;;;;;;3.95;1.05;;;9.50;99.90;;;;;;5049497;28;20131;-64
2021/12/29 07:27:51;;;;;;;5.10;1.45;;;9.50;99.90;;;;;;5048945;28;20098;-64
2021/12/29 07:30:18;;;;;;;7.10;0.98;;;9.50;99.90;;;;;;5041347;28;20057;-65
2021/12/29 07:32:45;;;;;;;6.88;1.05;;;9.50;99.90;;;;;;5049053;28;20127;-64
2021/12/29 07:35:12;;;;;;;4.72;1.13;;;9.50;99.90;;;;;;5049165;28;20455;-65
2021/12/29 07:37:39;;;;;;;5.97;1.25;;;9.50;99.90;;;;;;5048653;28;20124;-65
2021/12/29 07:40:08;;;;;;;7.93;1.33;;;9.50;99.90;;;;;;5048978;28;20120;-65
2021/12/29 07:42:36;;;;;;;2.67;1.48;;;9.60;99.90;;;;;;5048741;28;20107;-65
2021/12/29 07:45:06;;;;;;;2.95;1.10;;;9.50;99.90;;;;;;5049105;28;20118;-65
2021/12/29 07:47:34;;;;;;;2.22;0.90;;;9.60;99.90;;;;;;5049048;28;20115;-65
2021/12/29 07:50:03;;;;;;;2.25;1.17;;;9.60;99.90;;;;;;5047335;28;20079;-65
2021/12/29 07:52:49;;;;;;;2.78;0.95;;;9.60;99.90;;;;;;5047373;28;20557;-65
2021/12/29 07:55:17;;;;;;;1.98;0.82;;;9.60;99.90;;;;;;5048756;28;20518;-66
2021/12/29 07:57:48;;;;;;;1.23;0.50;;;9.60;99.90;;;;;;5048744;28;20080;-66
2021/12/29 08:00:15;;;;;;;2.92;0.93;;;9.60;99.90;;;;;;5048535;28;20076;-65
2021/12/29 08:02:44;;;;;;;2.97;0.70;;;9.70;99.90;;;;;;5048689;28;20076;-66
2021/12/29 08:05:11;;;;;;;1.48;0.60;;;9.70;99.90;;;;;;5047425;28;20079;-66
2021/12/29 08:07:44;;;;;;;1.67;0.52;;;9.70;99.90;;;;;;5048979;28;20095;-64
2021/12/29 08:10:11;;;;;;;0.95;0.50;;;9.70;99.90;;;;;;5047970;28;20053;-62
2021/12/29 08:12:38;;;;;;;0.75;0.30;;;9.70;99.90;;;;;;5046779;28;20351;-62
2021/12/29 08:15:05;;;;;;;0.85;0.52;;;9.70;99.90;;;;;;5046952;28;20060;-62
2021/12/29 08:17:32;;;;;;;3.28;0.88;;;9.70;99.90;;;;;;5046782;28;20080;-61
2021/12/29 08:20:00;;;;;;;1.70;0.55;;;9.70;99.90;;;;;;5048426;28;20051;-62
2021/12/29 08:22:26;;;;;;;1.35;0.88;;;9.80;99.90;;;;;;5048265;28;20559;-62
2021/12/29 08:24:53;;;;;;;3.92;0.98;;;9.80;99.90;;;;;;5048329;28;20290;-62
2021/12/29 08:27:20;;;;;;;3.90;0.57;;;9.80;99.90;;;;;;5048777;28;20102;-64
2021/12/29 08:29:47;;;;;;;3.47;1.10;;;9.80;99.90;;;;;;5046121;28;20385;-62
2021/12/29 08:32:14;;;;;;;2.58;1.52;;;9.90;99.90;;;;;;5047595;28;20052;-61
2021/12/29 08:34:41;;;;;;;0.55;0.55;;;9.90;99.90;;;;;;5047614;28;20107;-61
2021/12/29 08:37:08;;;;;;;2.30;0.80;;;9.90;99.90;;;;;;5048084;28;20067;-62
2021/12/29 08:39:37;;;;;;;2.15;0.70;;;9.90;99.90;;;;;;5046747;28;20048;-62
2021/12/29 08:42:04;;;;;;;2.10;0.98;;;9.90;99.90;;;;;;5047607;28;20508;-62
2021/12/29 08:44:31;;;;;;;1.52;0.70;;;10.00;99.90;;;;;;5047877;28;20077;-62
2021/12/29 08:46:58;;;;;;;1.85;1.42;;;10.00;99.90;;;;;;5047552;28;20351;-62
2021/12/29 08:49:25;;;;;;;4.95;0.82;;;10.10;99.90;;;;;;5047688;28;20127;-61
2021/12/29 08:51:52;;;;;;;1.08;0.70;;;10.10;99.90;;;;;;5047422;28;20473;-61
2021/12/29 08:54:19;;;;;;;2.05;0.93;;;10.10;99.90;;;;;;5047194;28;20345;-61
2021/12/29 08:56:45;;;;;;;1.00;0.90;;;10.20;99.90;;;;;;5047384;28;20053;-61
2021/12/29 08:59:13;;;;;;;2.15;0.60;;;10.20;99.90;;;;;;5046606;28;20499;-62
2021/12/29 09:01:40;;;;;;;0.90;0.60;;;10.20;99.90;;;;;;4697053;28;9999920;-61
2021/12/29 09:04:07;;;;;;;0.63;0.47;;;10.20;99.90;;;;;;5044369;28;20052;-62
2021/12/29 09:06:34;;;;;;;0.60;0.60;;;10.30;99.90;;;;;;5043430;28;20144;-61
2021/12/29 09:09:02;;;;;;;2.25;1.38;;;10.40;99.90;;;;;;5040245;28;20569;-62
2021/12/29 09:11:30;;;;;;;0.77;0.70;;;10.40;99.90;;;;;;5042821;28;20045;-62
2021/12/29 09:13:59;;;;;;;4.38;1.70;;;10.40;99.90;;;;;;5044444;28;20063;-62
2021/12/29 09:16:27;;;;;;;2.42;1.02;;;10.40;99.90;;;;;;5044073;28;20419;-62
2021/12/29 09:18:54;;;;;;;2.88;0.82;;;10.40;99.90;;;;;;5044234;28;20071;-62
2021/12/29 09:21:23;;;;;;;1.42;0.90;;;10.50;99.90;;;;;;5041069;28;20052;-62
2021/12/29 09:23:50;;;;;;;2.95;1.00;;;10.50;99.90;;;;;;5044304;28;20049;-62
2021/12/29 09:26:16;;;;;;;2.75;1.50;;;10.50;99.90;;;;;;5043434;28;20045;-62
2021/12/29 09:28:44;;;;;;;2.63;1.40;;;10.50;99.90;;;;;;5043492;28;20064;-62
2021/12/29 09:31:13;;;;;;;2.85;1.40;;;10.50;99.90;;;;;;5042380;28;20102;-62
2021/12/29 09:33:41;;;;;;;1.48;0.80;;;10.60;99.90;;;;;;5042116;28;20469;-62
2021/12/29 09:36:08;;;;;;;1.30;1.10;;;10.60;99.90;;;;;;5043838;28;20487;-62
2021/12/29 09:38:36;;;;;;;3.22;1.30;;;10.60;99.90;;;;;;5042763;28;20139;-62
2021/12/29 09:41:03;;;;;;;1.98;1.10;;;10.60;99.90;;;;;;5043870;28;20082;-62
2021/12/29 09:43:30;;;;;;;1.23;0.93;;;10.60;99.90;;;;;;5041313;28;20210;-62
2021/12/29 09:45:57;;;;;;;1.92;1.25;;;10.60;99.90;;;;;;5043874;28;20045;-62
2021/12/29 09:48:24;;;;;;;2.38;0.85;;;10.70;99.90;;;;;;5043015;28;20080;-62
2021/12/29 09:50:51;;;;;;;2.90;0.73;;;10.70;99.90;;;;;;5043554;28;20045;-62
2021/12/29 09:53:19;;;;;;;3.00;0.98;;;10.70;99.90;;;;;;5043663;28;20076;-62
2021/12/29 09:55:46;;;;;;;3.72;1.00;;;10.80;99.90;;;;;;5044353;28;20103;-62
2021/12/29 09:58:14;;;;;;;2.78;0.65;;;10.80;99.90;;;;;;5023016;28;20044;-61
2021/12/29 10:00:44;;;;;;;1.02;0.60;;;10.80;99.90;;;;;;5040746;28;20053;-61
2021/12/29 10:03:13;;;;;;;0.70;0.55;;;10.90;99.90;;;;;;5042170;28;20044;-63
2021/12/29 10:05:41;;;;;;;0.65;0.50;;;10.90;99.90;;;;;;5026255;28;20087;-61
2021/12/29 10:08:12;;;;;;;1.15;0.70;;;11.00;99.90;;;;;;5043294;28;20076;-62
2021/12/29 10:10:41;;;;;;;1.30;0.57;;;11.00;99.90;;;;;;5043732;28;20511;-61
2021/12/29 10:13:08;;;;;;;1.75;0.93;;;11.10;99.90;;;;;;5042040;28;20102;-61
2021/12/29 10:15:43;;;;;;;1.33;0.68;;;11.20;99.90;;;;;;5042123;28;20102;-61
2021/12/29 10:18:16;;;;;;;13.25;2.38;;;11.30;99.90;;;;;;5040495;28;20150;-61
2021/12/29 10:20:54;;;;;;;1.30;0.80;;;11.30;99.90;;;;;;5042510;28;20048;-62
2021/12/29 10:23:23;;;;;;;2.17;0.70;;;11.40;99.90;;;;;;5042410;28;20136;-62
2021/12/29 10:25:51;;;;;;;3.58;0.63;;;11.40;99.90;;;;;;5043332;28;20102;-62
2021/12/29 10:28:28;;;;;;;0.43;0.40;;;11.50;99.90;;;;;;5042715;28;20496;-62
2021/12/29 10:31:11;;;;;;;0.40;0.40;;;11.50;99.90;;;;;;5035301;28;20108;-61
2021/12/29 10:33:40;;;;;;;0.85;0.68;;;11.60;99.90;;;;;;5041455;28;20056;-61
2021/12/29 10:36:31;;;;;;;0.45;0.38;;;11.60;99.90;;;;;;5042817;28;20044;-62
2021/12/29 10:38:59;;;;;;;0.90;0.50;;;11.70;99.90;;;;;;5042040;28;20049;-61
2021/12/29 10:41:28;;;;;;;1.55;0.50;;;11.70;99.90;;;;;;5042946;28;20056;-61
2021/12/29 10:44:03;;;;;;;0.73;0.57;;;11.80;99.90;;;;;;5042219;28;20136;-61
2021/12/29 10:46:33;;;;;;;0.40;0.40;;;11.90;99.90;;;;;;5043303;28;20106;-61
2021/12/29 10:49:03;;;;;;;0.70;0.28;;;11.90;99.90;;;;;;5040976;28;20068;-61
2021/12/29 10:51:35;;;;;;;0.88;0.38;;;12.00;99.90;;;;;;5042741;28;20122;-61
2021/12/29 10:54:04;;;;;;;0.50;0.45;;;12.10;99.90;;;;;;5044113;28;20110;-61
2021/12/29 10:56:31;;;;;;;0.80;0.50;;;12.20;99.90;;;;;;5044507;28;20507;-61
2021/12/29 10:58:59;;;;;;;0.32;0.32;;;12.20;99.90;;;;;;5047541;28;20110;-62
2021/12/29 11:01:25;;;;;;;0.43;0.38;;;12.30;99.90;;;;;;5046155;28;20074;-62
2021/12/29 11:03:57;;;;;;;1.65;0.40;;;12.30;99.90;;;;;;5046014;28;20064;-61
2021/12/29 11:06:25;;;;;;;3.42;0.50;;;12.40;99.90;;;;;;5045043;28;20206;-61
2021/12/29 11:08:53;;;;;;;1.45;0.70;;;12.40;99.90;;;;;;5046481;28;20041;-61
2021/12/29 11:11:41;;;;;;;3.40;0.57;;;12.50;99.90;;;;;;5046368;28;20045;-61
2021/12/29 11:14:24;;;;;;;2.40;0.57;;;12.60;99.90;;;;;;5040997;28;20098;-61
2021/12/29 11:17:06;;;;;;;0.35;0.35;;;12.70;99.90;;;;;;5044742;28;20048;-61
2021/12/29 11:19:33;;;;;;;2.50;0.30;;;12.70;99.90;;;;;;5037373;28;20075;-61
2021/12/29 11:22:14;;;;;;;1.65;0.68;;;12.80;99.90;;;;;;5042579;28;20045;-61
2021/12/29 11:24:42;;;;;;;1.92;0.60;;;12.80;99.90;;;;;;5045311;28;20045;-61
2021/12/29 11:27:14;;;;;;;0.98;0.55;;;12.90;99.90;;;;;;5040180;28;20044;-61
2021/12/29 11:29:52;;;;;;;0.55;0.55;;;13.00;99.90;;;;;;5044625;28;20080;-61
2021/12/29 11:32:23;;;;;;;1.33;0.70;;;13.00;99.90;;;;;;5042374;28;20152;-61
2021/12/29 11:35:07;;;;;;;0.73;0.65;;;13.10;99.90;;;;;;5045054;28;20091;-61
2021/12/29 11:37:37;;;;;;;1.60;0.80;;;13.10;99.90;;;;;;5026861;28;20102;-60
2021/12/29 11:40:06;;;;;;;1.77;0.57;;;13.20;99.90;;;;;;5046588;28;20049;-61
2021/12/29 11:42:33;;;;;;;0.75;0.60;;;13.30;99.90;;;;;;5045232;28;20052;-61
2021/12/29 11:45:00;;;;;;;2.53;0.70;;;13.40;99.90;;;;;;5044567;28;20041;-60
2021/12/29 11:47:27;;;;;;;9.13;0.80;;;13.40;99.90;;;;;;5044540;28;20049;-62
2021/12/29 11:49:54;;;;;;;2.17;0.63;;;13.40;99.90;;;;;;5043991;28;20057;-61
2021/12/29 11:52:59;;;;;;;1.35;0.65;;;13.50;99.90;;;;;;5044325;28;20099;-60
2021/12/29 11:55:32;;;;;;;3.40;1.05;;;13.60;99.90;;;;;;5039365;28;20052;-61
2021/12/29 11:58:09;;;;;;;0.98;0.68;;;13.70;99.90;;;;;;4346831;28;10000912;-61
2021/12/29 12:00:36;;;;;;;2.78;1.10;;;13.70;99.90;;;;;;5040879;28;20515;-60
2021/12/29 12:03:12;;;;;;;2.15;0.73;;;13.70;99.90;;;;;;5044472;28;20049;-61
2021/12/29 12:05:41;;;;;;;3.33;0.73;;;13.80;99.90;;;;;;5041378;28;20052;-60
2021/12/29 12:08:13;;;;;;;6.63;1.00;;;13.90;99.90;;;;;;5044459;28;20099;-60
2021/12/29 12:10:40;;;;;;;3.75;0.70;;;13.90;99.90;;;;;;5042459;28;20053;-60
2021/12/29 12:13:23;;;;;;;1.42;0.50;;;14.00;99.90;;;;;;5044067;28;20081;-61
2021/12/29 12:15:50;;;;;;;5.75;1.48;;;14.00;99.90;;;;;;5043556;28;20048;-61
2021/12/29 12:18:17;;;;;;;1.67;0.85;;;14.20;99.90;;;;;;5041160;28;20040;-61
2021/12/29 12:20:49;;;;;;;1.52;0.80;;;14.20;99.90;;;;;;5043066;28;20057;-62
2021/12/29 12:23:27;;;;;;;2.80;0.75;;;14.20;99.90;;;;;;5044155;28;20049;-61
2021/12/29 12:26:05;;;;;;;5.93;2.65;;;14.30;99.90;;;;;;5042893;28;20134;-61
2021/12/29 12:28:48;;;;;;;2.15;0.77;;;14.30;99.90;;;;;;5042922;28;20094;-61
2021/12/29 12:31:41;;;;;;;5.70;0.70;;;14.40;99.90;;;;;;5043688;28;20107;-61
2021/12/29 12:34:13;;;;;;;3.92;0.90;;;14.40;99.90;;;;;;5042970;28;20051;-61
2021/12/29 12:36:40;;;;;;;1.55;0.63;;;14.50;99.90;;;;;;5043413;28;20107;-61
2021/12/29 12:39:15;;;;;;;1.77;1.23;;;14.50;99.90;;;;;;5043509;28;20083;-61
2021/12/29 12:41:46;;;;;;;1.23;0.68;;;14.60;99.90;;;;;;5044401;28;20049;-61
2021/12/29 12:44:13;;;;;;;2.90;0.70;;;14.60;99.90;;;;;;5044247;28;20091;-61
2021/12/29 12:46:50;;;;;;;1.77;0.82;;;14.60;99.90;;;;;;5043588;28;20116;-61
2021/12/29 12:49:21;;;;;;;2.50;0.65;;;14.70;99.90;;;;;;5043290;28;20049;-60
2021/12/29 12:51:58;;;;;;;2.70;0.75;;;14.70;99.90;;;;;;5043800;28;20052;-63
2021/12/29 12:54:27;;;;;;;4.18;1.20;;;14.70;99.90;;;;;;5044639;28;20420;-62
2021/12/29 12:56:56;;;;;;;2.08;0.85;;;14.70;99.90;;;;;;5043688;28;20075;-61
2021/12/29 12:59:33;;;;;;;1.67;0.65;;;14.70;99.90;;;;;;5042366;28;20410;-61
2021/12/29 13:02:15;;;;;;;3.58;0.95;;;14.70;99.90;;;;;;5041758;28;20063;-62
2021/12/29 13:05:07;;;;;;;2.85;1.20;;;14.70;99.90;;;;;;5044353;28;20472;-61
2021/12/29 13:07:34;;;;;;;2.53;0.80;;;14.80;99.90;;;;;;5046599;28;20076;-61
2021/12/29 13:10:01;;;;;;;4.25;1.00;;;14.80;99.90;;;;;;5045175;28;20467;-61